Indianapolis, Indiana
Traffic Map
Current Weather Conditions
Indianapolis, Indiana
Scattered Clouds
Scattered Clouds
-2°
Feels Like: -6°
Wind Chill: -6° Ceiling: Unl
Heat Index: -2° Visibility: 10mi
Dew Point: -9° Wind: 8mph
Humidity: 58% Direction: 160° (SSE)
Pressure: 30.25in Gusts: 0mph
Raw Report DataKIND 291254Z 16007KT 10SM SCT180 M02/M09 A3025 RMK AO2 SLP253 T10171089
Traffic Incident Summary
Active as of:
Severity:
Category:
InformationThere was an issue retrieving the traffic information for this location. Please try a different location or try again shortly.
Advertisements
Track Severe Weather on mobile